sensor_id;sensor_type;location;lat;lon;timestamp;pressure;altitude;pressure_sealevel;temperature;humidity
11676;BME280;5894;42.768;23.404;2023-07-28T00:00:12;95715.16;;;17.22;75.55
11676;BME280;5894;42.768;23.404;2023-07-28T00:02:40;95685.16;;;16.97;74.05
11676;BME280;5894;42.768;23.404;2023-07-28T00:05:07;95717.28;;;17.16;73.12
11676;BME280;5894;42.768;23.404;2023-07-28T00:07:34;95719.00;;;17.09;72.84
11676;BME280;5894;42.768;23.404;2023-07-28T00:10:04;95719.91;;;17.01;74.08
11676;BME280;5894;42.768;23.404;2023-07-28T00:12:31;95717.47;;;16.96;76.86
11676;BME280;5894;42.768;23.404;2023-07-28T00:14:58;95721.16;;;16.91;78.00
11676;BME280;5894;42.768;23.404;2023-07-28T00:17:25;95724.69;;;16.95;79.45
11676;BME280;5894;42.768;23.404;2023-07-28T00:19:52;95732.13;;;17.02;78.91
11676;BME280;5894;42.768;23.404;2023-07-28T00:22:19;95720.44;;;17.06;78.06
11676;BME280;5894;42.768;23.404;2023-07-28T00:24:46;95716.66;;;17.07;75.99
11676;BME280;5894;42.768;23.404;2023-07-28T00:27:15;95712.88;;;17.08;75.37
11676;BME280;5894;42.768;23.404;2023-07-28T00:29:44;95704.78;;;17.05;75.08
11676;BME280;5894;42.768;23.404;2023-07-28T00:32:11;95702.59;;;16.95;76.78
11676;BME280;5894;42.768;23.404;2023-07-28T00:34:37;95710.91;;;16.93;76.66
11676;BME280;5894;42.768;23.404;2023-07-28T00:37:05;95708.03;;;16.98;77.74
11676;BME280;5894;42.768;23.404;2023-07-28T00:39:32;95706.47;;;16.97;76.51
11676;BME280;5894;42.768;23.404;2023-07-28T00:41:59;95708.50;;;16.88;75.68
11676;BME280;5894;42.768;23.404;2023-07-28T00:44:28;95701.19;;;16.85;75.41
11676;BME280;5894;42.768;23.404;2023-07-28T00:46:54;95705.22;;;16.79;77.65
11676;BME280;5894;42.768;23.404;2023-07-28T00:49:22;95686.38;;;16.60;78.63
11676;BME280;5894;42.768;23.404;2023-07-28T00:51:49;95715.53;;;16.80;78.62
11676;BME280;5894;42.768;23.404;2023-07-28T00:54:17;95720.84;;;16.80;78.11
11676;BME280;5894;42.768;23.404;2023-07-28T00:56:45;95717.97;;;16.73;78.57
11676;BME280;5894;42.768;23.404;2023-07-28T00:59:13;95716.66;;;16.67;78.64
11676;BME280;5894;42.768;23.404;2023-07-28T01:01:41;95719.53;;;16.74;78.22
11676;BME280;5894;42.768;23.404;2023-07-28T01:04:08;95718.75;;;16.74;77.30
11676;BME280;5894;42.768;23.404;2023-07-28T01:06:41;95697.66;;;16.57;77.40
11676;BME280;5894;42.768;23.404;2023-07-28T01:09:14;95724.84;;;16.62;78.65
11676;BME280;5894;42.768;23.404;2023-07-28T01:11:53;95715.75;;;16.63;77.93
11676;BME280;5894;42.768;23.404;2023-07-28T01:14:21;95724.28;;;16.57;77.56
11676;BME280;5894;42.768;23.404;2023-07-28T01:16:49;95714.75;;;16.43;79.11
11676;BME280;5894;42.768;23.404;2023-07-28T01:19:17;95710.47;;;16.39;79.24
11676;BME280;5894;42.768;23.404;2023-07-28T01:21:48;95705.13;;;16.39;79.87
11676;BME280;5894;42.768;23.404;2023-07-28T01:24:23;95740.16;;;16.41;79.62
11676;BME280;5894;42.768;23.404;2023-07-28T01:26:56;95707.22;;;16.33;80.39
11676;BME280;5894;42.768;23.404;2023-07-28T01:29:23;95716.00;;;16.34;81.87
11676;BME280;5894;42.768;23.404;2023-07-28T01:31:51;95714.22;;;16.38;82.68
11676;BME280;5894;42.768;23.404;2023-07-28T01:34:18;95705.56;;;16.41;83.25
11676;BME280;5894;42.768;23.404;2023-07-28T01:36:45;95712.44;;;16.42;84.08
11676;BME280;5894;42.768;23.404;2023-07-28T01:39:11;95718.53;;;16.42;84.88
11676;BME280;5894;42.768;23.404;2023-07-28T01:41:38;95714.44;;;16.45;84.38
11676;BME280;5894;42.768;23.404;2023-07-28T01:44:10;95707.44;;;16.40;84.55
11676;BME280;5894;42.768;23.404;2023-07-28T01:46:38;95707.22;;;16.45;84.29
11676;BME280;5894;42.768;23.404;2023-07-28T01:49:05;95713.00;;;16.47;84.79
11676;BME280;5894;42.768;23.404;2023-07-28T01:51:32;95717.88;;;16.45;85.79
11676;BME280;5894;42.768;23.404;2023-07-28T01:53:59;95717.88;;;16.45;86.41
11676;BME280;5894;42.768;23.404;2023-07-28T01:56:26;95720.53;;;16.45;87.36
11676;BME280;5894;42.768;23.404;2023-07-28T01:58:52;95720.53;;;16.45;88.32
11676;BME280;5894;42.768;23.404;2023-07-28T02:01:21;95720.53;;;16.45;89.06
11676;BME280;5894;42.768;23.404;2023-07-28T02:03:48;95713.91;;;16.39;90.08
11676;BME280;5894;42.768;23.404;2023-07-28T02:06:15;95711.00;;;16.44;90.49
11676;BME280;5894;42.768;23.404;2023-07-28T02:08:42;95679.63;;;16.26;89.65
11676;BME280;5894;42.768;23.404;2023-07-28T02:11:09;95714.88;;;16.47;89.47
11676;BME280;5894;42.768;23.404;2023-07-28T02:13:36;95713.00;;;16.47;89.66
11676;BME280;5894;42.768;23.404;2023-07-28T02:16:03;95715.53;;;16.44;88.17
11676;BME280;5894;42.768;23.404;2023-07-28T02:18:32;95720.75;;;16.40;86.79
11676;BME280;5894;42.768;23.404;2023-07-28T02:20:59;95713.13;;;16.39;86.17
11676;BME280;5894;42.768;23.404;2023-07-28T02:23:25;95717.22;;;16.36;83.51
11676;BME280;5894;42.768;23.404;2023-07-28T02:25:52;95730.31;;;16.29;83.07
11676;BME280;5894;42.768;23.404;2023-07-28T02:28:19;95726.63;;;16.22;83.68
11676;BME280;5894;42.768;23.404;2023-07-28T02:30:46;95720.31;;;16.14;84.78
11676;BME280;5894;42.768;23.404;2023-07-28T02:33:13;95726.22;;;16.07;84.84
11676;BME280;5894;42.768;23.404;2023-07-28T02:35:42;95727.63;;;15.93;86.55
11676;BME280;5894;42.768;23.404;2023-07-28T02:38:09;95726.50;;;15.82;87.23
11676;BME280;5894;42.768;23.404;2023-07-28T02:40:36;95713.84;;;15.78;87.82
11676;BME280;5894;42.768;23.404;2023-07-28T02:43:03;95722.06;;;15.73;87.90
11676;BME280;5894;42.768;23.404;2023-07-28T02:45:30;95714.72;;;15.70;88.15
11676;BME280;5894;42.768;23.404;2023-07-28T02:47:57;95718.38;;;15.66;88.37
11676;BME280;5894;42.768;23.404;2023-07-28T02:50:24;95724.69;;;15.61;88.08
11676;BME280;5894;42.768;23.404;2023-07-28T02:52:52;95697.81;;;15.42;88.61
11676;BME280;5894;42.768;23.404;2023-07-28T02:55:19;95719.75;;;15.51;88.44
11676;BME280;5894;42.768;23.404;2023-07-28T02:57:46;95724.84;;;15.44;88.21
11676;BME280;5894;42.768;23.404;2023-07-28T03:00:13;95715.72;;;15.33;88.96
11676;BME280;5894;42.768;23.404;2023-07-28T03:02:39;95692.16;;;15.11;89.59
11676;BME280;5894;42.768;23.404;2023-07-28T03:05:07;95718.25;;;15.29;89.78
11676;BME280;5894;42.768;23.404;2023-07-28T03:07:43;95724.19;;;15.26;90.33
11676;BME280;5894;42.768;23.404;2023-07-28T03:10:14;95717.13;;;15.30;89.56
11676;BME280;5894;42.768;23.404;2023-07-28T03:12:42;95719.59;;;15.35;89.81
11676;BME280;5894;42.768;23.404;2023-07-28T03:15:09;95719.38;;;15.40;87.40
11676;BME280;5894;42.768;23.404;2023-07-28T03:17:37;95725.47;;;15.41;86.95
11676;BME280;5894;42.768;23.404;2023-07-28T03:20:05;95727.03;;;15.42;87.06
11676;BME280;5894;42.768;23.404;2023-07-28T03:22:32;95731.91;;;15.40;87.90
11676;BME280;5894;42.768;23.404;2023-07-28T03:24:59;95731.13;;;15.39;88.18
11676;BME280;5894;42.768;23.404;2023-07-28T03:27:28;95733.59;;;15.45;88.50
11676;BME280;5894;42.768;23.404;2023-07-28T03:29:55;95737.03;;;15.45;88.14
11676;BME280;5894;42.768;23.404;2023-07-28T03:32:23;95744.88;;;15.41;88.30
11676;BME280;5894;42.768;23.404;2023-07-28T03:34:50;95739.09;;;15.39;88.71
11676;BME280;5894;42.768;23.404;2023-07-28T03:37:19;95750.97;;;15.42;89.20
11676;BME280;5894;42.768;23.404;2023-07-28T03:39:46;95745.09;;;15.49;86.58
11676;BME280;5894;42.768;23.404;2023-07-28T03:42:14;95744.66;;;15.47;86.39
11676;BME280;5894;42.768;23.404;2023-07-28T03:44:43;95727.00;;;15.30;85.77
11676;BME280;5894;42.768;23.404;2023-07-28T03:47:10;95744.41;;;15.39;85.55
11676;BME280;5894;42.768;23.404;2023-07-28T03:49:37;95753.06;;;15.36;85.23
11676;BME280;5894;42.768;23.404;2023-07-28T03:52:05;95759.34;;;15.32;85.12
11676;BME280;5894;42.768;23.404;2023-07-28T03:54:32;95760.44;;;15.31;85.34
11676;BME280;5894;42.768;23.404;2023-07-28T03:56:59;95759.34;;;15.32;86.23
11676;BME280;5894;42.768;23.404;2023-07-28T03:59:26;95765.75;;;15.31;86.43
11676;BME280;5894;42.768;23.404;2023-07-28T04:01:55;95761.06;;;15.28;86.63
11676;BME280;5894;42.768;23.404;2023-07-28T04:04:22;95757.31;;;15.29;87.57
11676;BME280;5894;42.768;23.404;2023-07-28T04:06:49;95752.91;;;15.33;87.10
11676;BME280;5894;42.768;23.404;2023-07-28T04:09:18;95756.69;;;15.32;86.76
11676;BME280;5894;42.768;23.404;2023-07-28T04:11:45;95757.44;;;15.32;86.93
11676;BME280;5894;42.768;23.404;2023-07-28T04:14:13;95756.22;;;15.30;87.31
11676;BME280;5894;42.768;23.404;2023-07-28T04:16:40;95761.75;;;15.25;88.67
11676;BME280;5894;42.768;23.404;2023-07-28T04:19:08;95758.31;;;15.24;88.94
11676;BME280;5894;42.768;23.404;2023-07-28T04:21:35;95759.19;;;15.28;89.04
11676;BME280;5894;42.768;23.404;2023-07-28T04:24:05;95755.44;;;15.29;88.59
11676;BME280;5894;42.768;23.404;2023-07-28T04:26:35;95748.78;;;15.23;89.39
11676;BME280;5894;42.768;23.404;2023-07-28T04:29:03;95754.28;;;15.18;90.49
11676;BME280;5894;42.768;23.404;2023-07-28T04:31:31;95755.38;;;15.17;91.70
11676;BME280;5894;42.768;23.404;2023-07-28T04:34:08;95760.50;;;15.22;92.26
11676;BME280;5894;42.768;23.404;2023-07-28T04:37:05;95764.66;;;15.32;94.06
11676;BME280;5894;42.768;23.404;2023-07-28T04:39:55;95758.16;;;15.41;94.64
11676;BME280;5894;42.768;23.404;2023-07-28T04:42:22;95771.56;;;15.45;94.89
11676;BME280;5894;42.768;23.404;2023-07-28T04:44:49;95771.34;;;15.50;95.20
11676;BME280;5894;42.768;23.404;2023-07-28T04:47:18;95771.28;;;15.59;94.96
11676;BME280;5894;42.768;23.404;2023-07-28T04:49:47;95763.59;;;15.66;95.25
11676;BME280;5894;42.768;23.404;2023-07-28T04:52:36;95765.38;;;15.74;96.05
11676;BME280;5894;42.768;23.404;2023-07-28T04:55:38;95762.50;;;15.79;95.29
11676;BME280;5894;42.768;23.404;2023-07-28T04:58:05;95770.16;;;15.81;96.27
11676;BME280;5894;42.768;23.404;2023-07-28T05:00:44;95759.63;;;15.84;97.18
11676;BME280;5894;42.768;23.404;2023-07-28T05:03:11;95760.75;;;15.95;98.08
11676;BME280;5894;42.768;23.404;2023-07-28T05:05:47;95767.88;;;16.03;97.99
11676;BME280;5894;42.768;23.404;2023-07-28T05:08:14;95764.78;;;16.13;97.29
11676;BME280;5894;42.768;23.404;2023-07-28T05:10:41;95767.00;;;16.24;95.72
11676;BME280;5894;42.768;23.404;2023-07-28T05:13:09;95763.13;;;16.33;97.74
11676;BME280;5894;42.768;23.404;2023-07-28T05:15:38;95767.66;;;16.45;96.69
11676;BME280;5894;42.768;23.404;2023-07-28T05:18:08;95760.56;;;16.61;94.82
11676;BME280;5894;42.768;23.404;2023-07-28T05:20:47;95752.44;;;16.82;93.99
11676;BME280;5894;42.768;23.404;2023-07-28T05:23:16;95754.22;;;17.02;92.05
11676;BME280;5894;42.768;23.404;2023-07-28T05:25:43;95757.44;;;17.23;90.68
11676;BME280;5894;42.768;23.404;2023-07-28T05:28:10;95756.84;;;17.42;89.28
11676;BME280;5894;42.768;23.404;2023-07-28T05:30:39;95764.09;;;17.57;87.90
11676;BME280;5894;42.768;23.404;2023-07-28T05:33:06;95761.16;;;17.75;86.44
11676;BME280;5894;42.768;23.404;2023-07-28T05:36:01;95758.94;;;17.92;86.78
11676;BME280;5894;42.768;23.404;2023-07-28T05:38:29;95762.66;;;18.04;84.67
11676;BME280;5894;42.768;23.404;2023-07-28T05:40:57;95762.59;;;18.16;83.28
11676;BME280;5894;42.768;23.404;2023-07-28T05:43:24;95766.69;;;18.29;82.67
11676;BME280;5894;42.768;23.404;2023-07-28T05:45:53;95751.47;;;18.29;82.82
11676;BME280;5894;42.768;23.404;2023-07-28T05:48:20;95764.63;;;18.54;81.67
11676;BME280;5894;42.768;23.404;2023-07-28T05:50:47;95756.97;;;18.68;82.93
11676;BME280;5894;42.768;23.404;2023-07-28T05:53:18;95753.81;;;18.82;83.00
11676;BME280;5894;42.768;23.404;2023-07-28T05:55:45;95745.88;;;18.85;82.27
11676;BME280;5894;42.768;23.404;2023-07-28T05:58:12;95745.78;;;18.97;81.35
11676;BME280;5894;42.768;23.404;2023-07-28T06:00:40;95748.50;;;19.01;79.90
11676;BME280;5894;42.768;23.404;2023-07-28T06:03:13;95741.41;;;19.09;80.45
11676;BME280;5894;42.768;23.404;2023-07-28T06:06:02;95738.53;;;19.17;82.41
11676;BME280;5894;42.768;23.404;2023-07-28T06:08:31;95739.75;;;19.20;81.13
11676;BME280;5894;42.768;23.404;2023-07-28T06:10:58;95735.22;;;19.24;79.48
11676;BME280;5894;42.768;23.404;2023-07-28T06:13:25;95732.28;;;19.29;78.73
11676;BME280;5894;42.768;23.404;2023-07-28T06:15:53;95731.50;;;19.28;77.82
11676;BME280;5894;42.768;23.404;2023-07-28T06:18:21;95722.06;;;19.34;77.17
11676;BME280;5894;42.768;23.404;2023-07-28T06:20:58;95724.38;;;19.36;76.26
11676;BME280;5894;42.768;23.404;2023-07-28T06:23:25;95729.31;;;19.34;76.38
11676;BME280;5894;42.768;23.404;2023-07-28T06:25:56;95731.41;;;19.44;75.31
11676;BME280;5894;42.768;23.404;2023-07-28T06:28:23;95727.03;;;19.52;74.39
11676;BME280;5894;42.768;23.404;2023-07-28T06:30:53;95729.31;;;19.53;74.35
11676;BME280;5894;42.768;23.404;2023-07-28T06:33:21;95732.50;;;19.59;73.80
11676;BME280;5894;42.768;23.404;2023-07-28T06:35:48;95730.28;;;19.64;74.05
11676;BME280;5894;42.768;23.404;2023-07-28T06:38:15;95731.78;;;19.62;72.00
11676;BME280;5894;42.768;23.404;2023-07-28T06:40:42;95722.41;;;19.71;70.36
11676;BME280;5894;42.768;23.404;2023-07-28T06:43:11;95725.13;;;19.75;69.60
11676;BME280;5894;42.768;23.404;2023-07-28T06:45:38;95728.06;;;19.89;70.95
11676;BME280;5894;42.768;23.404;2023-07-28T06:48:05;95730.06;;;19.96;72.25
11676;BME280;5894;42.768;23.404;2023-07-28T06:50:32;95725.56;;;20.00;69.50
11676;BME280;5894;42.768;23.404;2023-07-28T06:52:59;95722.22;;;20.06;69.78
11676;BME280;5894;42.768;23.404;2023-07-28T06:55:26;95719.47;;;20.26;70.62
11676;BME280;5894;42.768;23.404;2023-07-28T06:57:53;95724.78;;;20.45;70.06
11676;BME280;5894;42.768;23.404;2023-07-28T07:00:22;95721.88;;;20.57;69.16
11676;BME280;5894;42.768;23.404;2023-07-28T07:02:49;95724.31;;;20.66;68.79
11676;BME280;5894;42.768;23.404;2023-07-28T07:05:16;95718.78;;;20.81;69.86
11676;BME280;5894;42.768;23.404;2023-07-28T07:07:44;95720.16;;;20.98;68.25
11676;BME280;5894;42.768;23.404;2023-07-28T07:10:11;95725.28;;;21.10;67.49
11676;BME280;5894;42.768;23.404;2023-07-28T07:12:38;95718.84;;;21.15;66.89
11676;BME280;5894;42.768;23.404;2023-07-28T07:15:06;95715.25;;;21.34;66.99
11676;BME280;5894;42.768;23.404;2023-07-28T07:17:35;95713.16;;;21.53;66.17
11676;BME280;5894;42.768;23.404;2023-07-28T07:20:02;95713.31;;;21.68;63.34
11676;BME280;5894;42.768;23.404;2023-07-28T07:22:29;95724.59;;;21.84;61.75
11676;BME280;5894;42.768;23.404;2023-07-28T07:24:56;95721.59;;;21.92;61.70
11676;BME280;5894;42.768;23.404;2023-07-28T07:27:24;95732.91;;;22.12;59.18
11676;BME280;5894;42.768;23.404;2023-07-28T07:29:51;95734.22;;;22.32;56.46
11676;BME280;5894;42.768;23.404;2023-07-28T07:32:18;95735.94;;;22.51;55.33
11676;BME280;5894;42.768;23.404;2023-07-28T07:34:46;95735.66;;;22.70;55.17
11676;BME280;5894;42.768;23.404;2023-07-28T07:37:13;95730.06;;;22.93;53.89
11676;BME280;5894;42.768;23.404;2023-07-28T07:39:40;95735.53;;;23.11;50.42
11676;BME280;5894;42.768;23.404;2023-07-28T07:42:10;95737.16;;;23.33;50.19
11676;BME280;5894;42.768;23.404;2023-07-28T07:44:37;95739.19;;;23.58;52.01
11676;BME280;5894;42.768;23.404;2023-07-28T07:47:11;95735.78;;;23.89;47.09
11676;BME280;5894;42.768;23.404;2023-07-28T07:49:39;95735.81;;;24.10;46.58
11676;BME280;5894;42.768;23.404;2023-07-28T07:52:08;95736.25;;;24.34;45.29
11676;BME280;5894;42.768;23.404;2023-07-28T07:54:35;95730.47;;;24.49;43.61
11676;BME280;5894;42.768;23.404;2023-07-28T07:57:02;95724.28;;;24.77;43.80
11676;BME280;5894;42.768;23.404;2023-07-28T07:59:30;95735.00;;;25.02;41.70
11676;BME280;5894;42.768;23.404;2023-07-28T08:01:59;95728.78;;;25.23;42.11
11676;BME280;5894;42.768;23.404;2023-07-28T08:04:29;95735.63;;;25.45;40.01
11676;BME280;5894;42.768;23.404;2023-07-28T08:06:57;95732.09;;;25.59;39.95
11676;BME280;5894;42.768;23.404;2023-07-28T08:09:25;95732.72;;;25.88;39.87
11676;BME280;5894;42.768;23.404;2023-07-28T08:11:53;95727.09;;;26.20;40.24
11676;BME280;5894;42.768;23.404;2023-07-28T08:14:20;95724.63;;;26.47;39.94
11676;BME280;5894;42.768;23.404;2023-07-28T08:16:48;95725.88;;;26.76;39.97
11676;BME280;5894;42.768;23.404;2023-07-28T08:19:14;95725.59;;;27.04;39.33
11676;BME280;5894;42.768;23.404;2023-07-28T08:21:42;95719.44;;;27.34;39.18
11676;BME280;5894;42.768;23.404;2023-07-28T08:24:09;95714.81;;;27.65;38.63
11676;BME280;5894;42.768;23.404;2023-07-28T08:26:38;95715.63;;;27.93;37.77
11676;BME280;5894;42.768;23.404;2023-07-28T08:29:05;95715.63;;;28.16;36.83
11676;BME280;5894;42.768;23.404;2023-07-28T08:31:32;95702.06;;;28.16;34.55
11676;BME280;5894;42.768;23.404;2023-07-28T08:33:59;95716.09;;;28.38;35.57
11676;BME280;5894;42.768;23.404;2023-07-28T08:36:26;95711.25;;;28.49;35.75
11676;BME280;5894;42.768;23.404;2023-07-28T08:38:53;95714.91;;;28.62;35.29
11676;BME280;5894;42.768;23.404;2023-07-28T08:41:20;95708.75;;;28.58;34.64
11676;BME280;5894;42.768;23.404;2023-07-28T08:43:48;95712.53;;;28.64;35.31
11676;BME280;5894;42.768;23.404;2023-07-28T08:46:16;95709.66;;;28.75;35.11
11676;BME280;5894;42.768;23.404;2023-07-28T08:48:43;95706.81;;;28.82;36.57
11676;BME280;5894;42.768;23.404;2023-07-28T08:51:12;95708.56;;;28.92;36.93
11676;BME280;5894;42.768;23.404;2023-07-28T08:53:40;95706.78;;;29.05;36.52
11676;BME280;5894;42.768;23.404;2023-07-28T08:56:08;95700.78;;;29.14;36.46
11676;BME280;5894;42.768;23.404;2023-07-28T08:58:35;95706.84;;;29.21;36.57
11676;BME280;5894;42.768;23.404;2023-07-28T09:01:04;95690.94;;;29.20;36.04
11676;BME280;5894;42.768;23.404;2023-07-28T09:03:31;95689.41;;;29.19;37.10
11676;BME280;5894;42.768;23.404;2023-07-28T09:06:00;95685.06;;;29.05;34.98
11676;BME280;5894;42.768;23.404;2023-07-28T09:08:27;95653.53;;;28.68;34.33
11676;BME280;5894;42.768;23.404;2023-07-28T09:10:54;95678.44;;;28.63;35.23
11676;BME280;5894;42.768;23.404;2023-07-28T09:13:22;95669.53;;;28.16;36.18
11676;BME280;5894;42.768;23.404;2023-07-28T09:15:49;95670.72;;;28.15;35.99
11676;BME280;5894;42.768;23.404;2023-07-28T09:18:18;95664.75;;;28.00;35.88
11676;BME280;5894;42.768;23.404;2023-07-28T09:20:45;95649.13;;;27.85;36.79
11676;BME280;5894;42.768;23.404;2023-07-28T09:23:13;95649.22;;;27.77;37.84
11676;BME280;5894;42.768;23.404;2023-07-28T09:25:40;95650.97;;;27.64;37.00
11676;BME280;5894;42.768;23.404;2023-07-28T09:28:08;95649.16;;;27.58;37.79
11676;BME280;5894;42.768;23.404;2023-07-28T09:30:47;95601.59;;;27.26;37.28
11676;BME280;5894;42.768;23.404;2023-07-28T09:33:29;95632.91;;;27.54;37.47
11676;BME280;5894;42.768;23.404;2023-07-28T09:35:56;95617.28;;;27.38;37.16
11676;BME280;5894;42.768;23.404;2023-07-28T09:38:27;95630.41;;;27.40;38.15
11676;BME280;5894;42.768;23.404;2023-07-28T09:40:57;95557.81;;;26.71;38.86
11676;BME280;5894;42.768;23.404;2023-07-28T09:43:26;95533.28;;;26.54;35.92
11676;BME280;5894;42.768;23.404;2023-07-28T09:45:53;95617.78;;;26.99;36.89
11676;BME280;5894;42.768;23.404;2023-07-28T09:48:24;95612.47;;;26.92;37.07
11676;BME280;5894;42.768;23.404;2023-07-28T09:50:51;95538.63;;;26.24;36.81
11676;BME280;5894;42.768;23.404;2023-07-28T09:53:19;95580.53;;;26.46;37.99
11676;BME280;5894;42.768;23.404;2023-07-28T09:55:48;95608.56;;;26.59;39.00
11676;BME280;5894;42.768;23.404;2023-07-28T09:58:17;95606.63;;;26.60;39.30
11676;BME280;5894;42.768;23.404;2023-07-28T10:00:48;95631.06;;;26.53;37.62
11676;BME280;5894;42.768;23.404;2023-07-28T10:03:16;95611.84;;;26.44;36.72
11676;BME280;5894;42.768;23.404;2023-07-28T10:05:45;95607.31;;;26.34;36.77
11676;BME280;5894;42.768;23.404;2023-07-28T10:08:13;95601.59;;;26.21;37.16
11676;BME280;5894;42.768;23.404;2023-07-28T10:10:40;95565.28;;;25.84;38.47
11676;BME280;5894;42.768;23.404;2023-07-28T10:13:19;95597.34;;;26.20;39.71
11676;BME280;5894;42.768;23.404;2023-07-28T10:15:47;95602.75;;;26.23;39.01
11676;BME280;5894;42.768;23.404;2023-07-28T10:18:14;95599.25;;;26.23;38.65
11676;BME280;5894;42.768;23.404;2023-07-28T10:20:42;95597.28;;;26.30;38.09
11676;BME280;5894;42.768;23.404;2023-07-28T10:23:17;95600.34;;;26.33;39.42
11676;BME280;5894;42.768;23.404;2023-07-28T10:25:45;95592.25;;;26.33;39.75
11676;BME280;5894;42.768;23.404;2023-07-28T10:28:26;95584.25;;;26.18;40.12
11676;BME280;5894;42.768;23.404;2023-07-28T10:30:55;95590.34;;;26.29;40.17
11676;BME280;5894;42.768;23.404;2023-07-28T10:33:32;95578.34;;;26.30;39.05
11676;BME280;5894;42.768;23.404;2023-07-28T10:36:11;95579.53;;;26.29;38.84
11676;BME280;5894;42.768;23.404;2023-07-28T10:38:40;95577.59;;;26.30;37.15
11676;BME280;5894;42.768;23.404;2023-07-28T10:41:11;95561.44;;;26.19;37.99
11676;BME280;5894;42.768;23.404;2023-07-28T10:43:38;95570.31;;;26.20;39.70
11676;BME280;5894;42.768;23.404;2023-07-28T10:46:08;95571.47;;;26.22;38.76
11676;BME280;5894;42.768;23.404;2023-07-28T10:48:36;95561.41;;;26.26;39.98
11676;BME280;5894;42.768;23.404;2023-07-28T10:51:03;95549.78;;;26.29;40.62
11676;BME280;5894;42.768;23.404;2023-07-28T10:53:31;95550.94;;;26.32;39.62
11676;BME280;5894;42.768;23.404;2023-07-28T10:56:01;95558.16;;;26.42;36.77
11676;BME280;5894;42.768;23.404;2023-07-28T10:58:29;95550.41;;;26.44;37.28
11676;BME280;5894;42.768;23.404;2023-07-28T11:00:56;95547.31;;;26.46;37.86
11676;BME280;5894;42.768;23.404;2023-07-28T11:03:23;95549.91;;;26.53;37.04
11676;BME280;5894;42.768;23.404;2023-07-28T11:05:50;95540.16;;;26.59;38.36
11676;BME280;5894;42.768;23.404;2023-07-28T11:08:17;95544.38;;;26.63;37.61
11676;BME280;5894;42.768;23.404;2023-07-28T11:10:44;95536.16;;;26.71;38.67
11676;BME280;5894;42.768;23.404;2023-07-28T11:13:13;95529.19;;;26.73;39.32
11676;BME280;5894;42.768;23.404;2023-07-28T11:15:42;95533.31;;;26.81;37.29
11676;BME280;5894;42.768;23.404;2023-07-28T11:18:14;95533.28;;;26.85;37.91
11676;BME280;5894;42.768;23.404;2023-07-28T11:20:41;95528.94;;;26.91;36.62
11676;BME280;5894;42.768;23.404;2023-07-28T11:23:13;95518.84;;;26.98;36.83
11676;BME280;5894;42.768;23.404;2023-07-28T11:25:42;95517.19;;;27.04;35.98
11676;BME280;5894;42.768;23.404;2023-07-28T11:28:10;95516.38;;;27.08;36.26
11676;BME280;5894;42.768;23.404;2023-07-28T11:30:39;95506.63;;;27.14;36.03
11676;BME280;5894;42.768;23.404;2023-07-28T11:33:09;95510.03;;;27.18;35.85
11676;BME280;5894;42.768;23.404;2023-07-28T11:35:37;95505.69;;;27.24;35.75
11676;BME280;5894;42.768;23.404;2023-07-28T11:38:05;95443.97;;;26.88;36.98
11676;BME280;5894;42.768;23.404;2023-07-28T11:40:33;95502.00;;;27.37;36.73
11676;BME280;5894;42.768;23.404;2023-07-28T11:43:00;95498.00;;;27.46;38.09
11676;BME280;5894;42.768;23.404;2023-07-28T11:45:29;95490.50;;;27.57;38.39
11676;BME280;5894;42.768;23.404;2023-07-28T11:48:01;95487.25;;;27.65;35.59
11676;BME280;5894;42.768;23.404;2023-07-28T11:50:29;95490.25;;;27.71;37.93
11676;BME280;5894;42.768;23.404;2023-07-28T11:52:57;95460.22;;;27.62;35.40
11676;BME280;5894;42.768;23.404;2023-07-28T11:55:24;95477.94;;;27.90;37.33
11676;BME280;5894;42.768;23.404;2023-07-28T11:57:51;95486.91;;;28.06;33.63
11676;BME280;5894;42.768;23.404;2023-07-28T12:00:19;95456.50;;;27.95;34.29
11676;BME280;5894;42.768;23.404;2023-07-28T12:03:02;95478.38;;;28.28;37.64
11676;BME280;5894;42.768;23.404;2023-07-28T12:05:30;95490.50;;;28.43;33.51
11676;BME280;5894;42.768;23.404;2023-07-28T12:07:58;95478.25;;;28.55;33.58
11676;BME280;5894;42.768;23.404;2023-07-28T12:10:25;95471.06;;;28.64;34.79
11676;BME280;5894;42.768;23.404;2023-07-28T12:12:53;95469.38;;;28.70;32.66
11676;BME280;5894;42.768;23.404;2023-07-28T12:15:22;95471.16;;;28.77;32.62
11676;BME280;5894;42.768;23.404;2023-07-28T12:18:09;95460.94;;;28.84;32.90
11676;BME280;5894;42.768;23.404;2023-07-28T12:20:37;95460.13;;;29.04;33.97
11676;BME280;5894;42.768;23.404;2023-07-28T12:23:05;95462.44;;;29.38;33.75
11676;BME280;5894;42.768;23.404;2023-07-28T12:25:34;95466.81;;;29.64;33.53
11676;BME280;5894;42.768;23.404;2023-07-28T12:28:02;95458.34;;;29.91;33.42
11676;BME280;5894;42.768;23.404;2023-07-28T12:30:33;95459.09;;;30.08;32.25
11676;BME280;5894;42.768;23.404;2023-07-28T12:33:00;95450.81;;;30.40;32.86
11676;BME280;5894;42.768;23.404;2023-07-28T12:35:31;95451.09;;;30.58;31.59
11676;BME280;5894;42.768;23.404;2023-07-28T12:38:00;95448.81;;;30.82;32.23
11676;BME280;5894;42.768;23.404;2023-07-28T12:40:27;95446.50;;;31.06;31.16
11676;BME280;5894;42.768;23.404;2023-07-28T12:42:57;95439.03;;;31.10;30.18
11676;BME280;5894;42.768;23.404;2023-07-28T12:45:24;95433.56;;;31.23;30.48
11676;BME280;5894;42.768;23.404;2023-07-28T12:47:52;95438.97;;;31.35;29.83
11676;BME280;5894;42.768;23.404;2023-07-28T12:50:20;95433.94;;;31.47;29.79
11676;BME280;5894;42.768;23.404;2023-07-28T12:52:48;95429.47;;;31.53;28.81
11676;BME280;5894;42.768;23.404;2023-07-28T12:55:16;95427.28;;;31.48;29.66
11676;BME280;5894;42.768;23.404;2023-07-28T12:57:44;95412.69;;;31.54;30.49
11676;BME280;5894;42.768;23.404;2023-07-28T13:00:14;95424.56;;;31.48;28.47
11676;BME280;5894;42.768;23.404;2023-07-28T13:02:42;95417.16;;;31.48;28.95
11676;BME280;5894;42.768;23.404;2023-07-28T13:05:10;95415.53;;;31.51;28.99
11676;BME280;5894;42.768;23.404;2023-07-28T13:07:37;95412.53;;;31.58;28.50